• Join FlightAware (Why Join?)
  • Login
  • US Flag 
05:39AM EDT


 

Airport Tracker/Info


-or-


 

Live Flight TrackerFlight Track Log ✈ N137TK ✈ 21-Jan-2014 ✈ KTPA - KAPF

Flight Track Log - Related Links

Times and Time Zones

All times are in EST time to prevent confusion due to time zone crossing. See the N137TK flight status page for this flight to view local times or setup timezone preferences in your user account.

Time Position Orientation Groundspeed Altitude Reporting Facility
EST Latitude Longitude Course Direction KTS MPH feet Rate Location/Type
01:19PM 27.9500 -82.5500 164° South 163 188 2,300  Level Tampa TRACON
01:20PM 27.9000 -82.5333 164° South 207 238 2,400 120 Climbing Tampa TRACON
01:21PM 27.8500 -82.5333 180° South 167 192 2,600 60 Climbing Tampa TRACON
01:22PM 27.8000 -82.5167 164° South 169 194 2,600 5,520 Level Tampa TRACON
01:24PM 27.6850 -82.4983 172° South 183 211 22,000 1,800 Climbing Miami Center
01:25PM 27.6375 -82.4867 168° South 272 313 9,000 -5,340 Descending Miami Center
01:26PM 27.5900 -82.4725 165° South 222 255 11,400 1,680 Climbing Miami Center
01:27PM 27.5342 -82.4581 167° South 201 231 12,400 4,800 Climbing Miami Center
01:28PM 27.4808 -82.4414 165° South 201 231 21,000 2,280 Climbing Miami Center
01:29PM 27.4272 -82.4178 159° South 201 231 17,000 -900 Descending Miami Center
01:30PM 27.3739 -82.3942 159° South 206 237 19,200 1,980 Climbing Miami Center
01:31PM 27.3228 -82.3708 158° South 206 237 21,000 900 Climbing Miami Center
01:32PM 27.2589 -82.3467 161° South 225 259 21,000  Level Miami Center
01:33PM 27.1883 -82.3408 176° South 238 274 21,000  Level Miami Center
01:34PM 27.1569 -82.3956 237° Southwest 184 212 21,000  Level Miami Center
01:35PM 27.1400 -82.4578 253° West 189 217 21,000  Level Miami Center
01:36PM 27.1247 -82.5244 256° West 202 232 21,000  Level Miami Center
01:37PM 27.1058 -82.5819 250° West 214 246 21,000 -120 Level Miami Center
01:38PM 27.0764 -82.6433 242° Southwest 225 259 20,800 -840 Descending Miami Center
01:39PM 27.0028 -82.6561 189° South 225 259 19,400 -1,500 Descending Miami Center
01:40PM 26.9233 -82.6078 152° Southeast 238 274 17,800 -4,200 Descending Miami Center
01:41PM 26.8406 -82.5364 142° Southeast 288 331 11,000 -1,920 Descending Miami Center
01:42PM 26.7717 -82.4817 145° Southeast 309 356 14,000 840 Climbing Miami Center
01:43PM 26.7069 -82.4322 146° Southeast 303 349 12,700 -1,200 Descending Miami Center
01:44PM 26.6522 -82.3878 144° Southeast 264 304 11,700 -1,020 Descending Miami Center
01:45PM 26.6017 -82.3414 141° Southeast 245 282 10,700 -1,020 Descending Miami Center
01:46PM 26.5536 -82.2903 136° Southeast 240 276 9,700 -1,020 Descending Miami Center
01:47PM 26.5053 -82.2442 140° Southeast 240 276 8,700 -1,020 Descending Miami Center
01:48PM 26.4589 -82.1978 138° Southeast 240 276 7,700 -960 Descending Miami Center
01:49PM 26.4064 -82.1467 139° Southeast 245 282 6,800 -960 Descending Miami Center
01:50PM 26.3519 -82.0958 140° Southeast 252 290 5,800 -1,020 Descending Miami Center
01:52PM 26.3132 -82.0334 130° Southeast  Level Estimated
01:59PM 26.1524 -81.7756 130° Southeast  Level Estimated
02:00PM 26.1524 -81.7756 130° Southeast  Level Estimated
02:01PM 26.1524 -81.7756 130° Southeast  Level Estimated
02:02PM 26.1524 -81.7756 130° Southeast  Level Estimated
02:03PM 26.1524 -81.7756 130° Southeast  Level Estimated
02:04PM 26.1524 -81.7756 130° Southeast  Level Estimated
02:05PM 26.1524 -81.7756 130° Southeast  Level Estimated
02:06PM 26.1524 -81.7756 130° Southeast  Level Estimated
02:07PM 26.1524 -81.7756 130° Southeast  Level Estimated
02:08PM 26.1524 -81.7756 130° Southeast  Level Estimated